Heat Advisory
until 8:00 PM EDT
| Temperature (°F) | Max | Average | Min |
|---|---|---|---|
| Max Temperature | 81 | 69.45 | 51 |
| Avg Temperature | 73.62 | 57.35 | 42.38 |
| Min Temperature | 69 | 45.83 | 30 |
| Dew Point (°F) | Max | Average | Min |
|---|---|---|---|
| Dew Point | 75 | 48.14 | 18 |
| Precipitation (in) | Max | Average | Min | Sum |
|---|---|---|---|---|
| Precipitation | 3.61 | 0.23 | 0.00 | 6.69 |
| Snowdepth | 0.00 | 0.00 | 0.00 | 0.00 |
| Wind (mph) | Max | Average | Min |
|---|---|---|---|
| Wind | 29 | 6.16 | 0 |
| Gust Wind | 40 | 1.52 | 0 |
| Sea Level Pressure (in) | Max | Average | Min |
|---|---|---|---|
| Sea Level Pressure | 30.47 | 29.99 | 29.28 |
| Date | Temperature (°F) | Dew Point (°F) | Humidity (%) | Wind Speed (mph) | Pressure (in) | Precipitation (in) | ||||||||||
|---|---|---|---|---|---|---|---|---|---|---|---|---|---|---|---|---|
| Max | Avg | Min | Max | Avg | Min | Max | Avg | Min | Max | Avg | Min | Max | Avg | Min | ||
| 11/30/2020 | 51 | 63.7 | 33 | 65 | 56.7 | 37 | 94 | 78.6 | 53 | 29 | 15.7 | 8 | 29.6 | 29.4 | 29.3 | 0.82 |
| 11/29/2020 | 76 | 53.7 | 47 | 60 | 47.5 | 39 | 97 | 81.3 | 46 | 15 | 6.8 | 0 | 30.0 | 29.9 | 29.6 | 0.06 |
| 11/28/2020 | 65 | 56.0 | 40 | 54 | 48.4 | 43 | 93 | 78.1 | 40 | 8 | 1.8 | 0 | 29.9 | 29.9 | 29.8 | 0.02 |
| 11/27/2020 | 69 | 62.5 | 46 | 62 | 58.1 | 50 | 100 | 86.8 | 49 | 13 | 2.1 | 0 | 29.9 | 29.9 | 29.8 | 0.00 |
| 11/26/2020 | 73 | 64.8 | 52 | 63 | 61.1 | 59 | 100 | 88.4 | 70 | 16 | 6.5 | 0 | 29.9 | 29.9 | 29.8 | 0.00 |
| 11/25/2020 | 70 | 54.7 | 61 | 60 | 47.5 | 34 | 93 | 78.4 | 54 | 12 | 6.0 | 0 | 30.2 | 30.1 | 30.0 | 0.00 |
| 11/24/2020 | 72 | 44.7 | 36 | 37 | 31.9 | 29 | 86 | 63.1 | 39 | 10 | 4.1 | 0 | 30.2 | 30.2 | 30.1 | 0.00 |
| 11/23/2020 | 56 | 56.8 | 35 | 58 | 46.1 | 26 | 100 | 72.3 | 29 | 16 | 8.1 | 0 | 30.1 | 29.9 | 29.8 | 0.02 |
| 11/22/2020 | 66 | 57.0 | 46 | 56 | 50.0 | 43 | 93 | 79.9 | 48 | 7 | 3.9 | 0 | 30.1 | 30.0 | 29.9 | 0.00 |
| 11/21/2020 | 74 | 56.8 | 45 | 51 | 47.4 | 40 | 97 | 74.0 | 41 | 6 | 2.0 | 0 | 30.2 | 30.2 | 30.1 | 0.00 |
| 11/20/2020 | 73 | 52.2 | 43 | 50 | 41.9 | 32 | 89 | 70.6 | 45 | 12 | 3.3 | 0 | 30.4 | 30.3 | 30.2 | 0.00 |
| 11/19/2020 | 72 | 42.4 | 35 | 34 | 28.7 | 22 | 92 | 63.6 | 25 | 6 | 1.8 | 0 | 30.5 | 30.4 | 30.3 | 0.00 |
| 11/18/2020 | 58 | 42.7 | 30 | 31 | 25.2 | 21 | 82 | 52.2 | 31 | 17 | 6.5 | 0 | 30.4 | 30.3 | 30.2 | 0.00 |
| 11/17/2020 | 53 | 51.3 | 35 | 36 | 29.0 | 21 | 82 | 48.0 | 17 | 20 | 9.9 | 5 | 30.2 | 30.0 | 29.9 | 0.00 |
| 11/16/2020 | 67 | 55.6 | 37 | 43 | 34.3 | 28 | 76 | 47.3 | 26 | 10 | 6.3 | 0 | 30.0 | 29.9 | 29.8 | 0.01 |
| 11/15/2020 | 68 | 65.4 | 44 | 66 | 60.6 | 51 | 93 | 85.1 | 66 | 16 | 8.4 | 0 | 30.0 | 29.8 | 29.7 | 0.00 |
| 11/14/2020 | 78 | 57.8 | 53 | 56 | 51.6 | 44 | 100 | 81.1 | 53 | 10 | 5.4 | 0 | 30.0 | 30.0 | 29.9 | 0.00 |
| 11/13/2020 | 69 | 59.5 | 50 | 62 | 56.9 | 52 | 100 | 91.4 | 75 | 14 | 5.6 | 0 | 29.9 | 29.8 | 29.7 | 1.93 |
| 11/12/2020 | 68 | 68.1 | 53 | 73 | 66.2 | 62 | 97 | 93.4 | 90 | 24 | 8.8 | 0 | 29.8 | 29.7 | 29.7 | 3.61 |
| 11/11/2020 | 76 | 73.6 | 64 | 75 | 71.1 | 67 | 97 | 91.9 | 85 | 22 | 9.4 | 5 | 29.9 | 29.8 | 29.7 | 0.01 |
| 11/10/2020 | 79 | 64.7 | 69 | 68 | 61.6 | 57 | 100 | 90.4 | 62 | 12 | 6.3 | 3 | 30.0 | 30.0 | 29.9 | 0.06 |
| 11/9/2020 | 81 | 65.1 | 58 | 67 | 62.7 | 54 | 97 | 92.0 | 76 | 9 | 6.2 | 3 | 30.1 | 30.1 | 30.0 | 0.00 |
| 11/7/2020 | 79 | 64.3 | 59 | 63 | 59.7 | 58 | 100 | 86.7 | 50 | 8 | 5.6 | 0 | 30.1 | 30.1 | 30.1 | 0.00 |
| 11/6/2020 | 75 | 61.7 | 54 | 62 | 57.3 | 51 | 97 | 86.6 | 60 | 12 | 6.8 | 0 | 30.1 | 30.1 | 30.0 | 0.00 |
| 11/5/2020 | 75 | 59.9 | 54 | 56 | 49.4 | 41 | 90 | 71.2 | 42 | 7 | 4.2 | 0 | 30.2 | 30.2 | 30.1 | 0.00 |
| 11/4/2020 | 78 | 52.8 | 43 | 44 | 39.0 | 35 | 93 | 64.7 | 29 | 8 | 2.0 | 0 | 30.3 | 30.2 | 30.2 | 0.00 |
| 11/3/2020 | 70 | 49.7 | 37 | 39 | 29.9 | 21 | 82 | 53.2 | 20 | 9 | 5.3 | 0 | 30.1 | 30.1 | 30.0 | 0.00 |
| 11/2/2020 | 67 | 47.0 | 33 | 31 | 22.7 | 18 | 76 | 40.5 | 25 | 17 | 11.1 | 5 | 30.1 | 30.0 | 29.9 | 0.15 |
| 11/1/2020 | 56 | 58.5 | 37 | 61 | 53.5 | 26 | 93 | 84.1 | 33 | 18 | 8.6 | 3 | 30.1 | 29.9 | 29.7 | 0.00 |